Terminal Aerodrome Forecast
Issued by NWS Northern Indiana

Home | Current Version | Previous Version | Graphics & Text | Print | Product List | Glossary On
Versions: 1 2 3 4 5 6 7 8 9 10 11 12 13
000
FTUS43 KIWX 242300
TAFFWA
TAF
KFWA 242340Z 2500/2524 24022G38KT P6SM OVC020
     FM250600 25015G25KT P6SM -SHSN OVC025
     FM251800 26012KT P6SM BKN030=

USA.gov is the U.S. government's official web portal to all federal, state and local government web resources and services.